createdAt,value
2019-05-02T00:01:21.421Z,54.10
2019-05-02T00:03:50.498Z,54.10
2019-05-02T00:06:19.581Z,54.10
2019-05-02T00:08:48.703Z,54.30
2019-05-02T00:11:18.602Z,54.20
2019-05-02T00:13:48.182Z,54.20
2019-05-02T00:16:17.314Z,54.20
2019-05-02T00:18:46.308Z,54.20
2019-05-02T00:21:15.783Z,54.30
2019-05-02T00:23:44.778Z,54.30
2019-05-02T00:26:13.697Z,54.40
2019-05-02T00:28:42.996Z,54.40
2019-05-02T00:31:13.266Z,54.40
2019-05-02T00:33:42.333Z,54.40
2019-05-02T00:36:11.349Z,54.40
2019-05-02T00:38:40.274Z,54.50
2019-05-02T00:41:09.254Z,54.50
2019-05-02T00:43:38.147Z,54.60
2019-05-02T00:46:07.117Z,54.60
2019-05-02T00:48:43.727Z,54.60
2019-05-02T00:51:12.757Z,54.60
2019-05-02T00:53:44.464Z,54.70
2019-05-02T00:56:12.347Z,54.70
2019-05-02T00:58:41.292Z,54.70
2019-05-02T01:01:38.594Z,54.70
2019-05-02T01:04:23.430Z,54.70
2019-05-02T01:06:50.819Z,54.90
2019-05-02T01:09:20.242Z,54.70
2019-05-02T01:11:50.255Z,54.70
2019-05-02T01:14:19.217Z,54.80
2019-05-02T01:16:49.385Z,54.90
2019-05-02T01:19:18.801Z,55.00
2019-05-02T01:21:47.827Z,55.00
2019-05-02T01:24:16.750Z,55.10
2019-05-02T01:26:59.805Z,55.10
2019-05-02T01:29:50.325Z,55.00
2019-05-02T01:32:36.802Z,55.00
2019-05-02T01:35:36.948Z,55.00
2019-05-02T01:38:21.043Z,55.10
2019-05-02T01:40:53.343Z,55.10
2019-05-02T01:43:25.756Z,55.10
2019-05-02T01:45:54.798Z,55.10
2019-05-02T01:48:24.320Z,55.10
2019-05-02T01:50:53.594Z,55.10
2019-05-02T01:53:22.625Z,55.20
2019-05-02T01:55:51.978Z,55.20
2019-05-02T01:58:22.865Z,55.30
2019-05-02T02:00:52.293Z,55.20
2019-05-02T02:03:21.289Z,55.40
2019-05-02T02:05:50.290Z,55.30
2019-05-02T02:08:19.300Z,55.40
2019-05-02T02:10:50.440Z,55.40
2019-05-02T02:13:19.040Z,55.40
2019-05-02T02:15:48.116Z,55.40
2019-05-02T02:18:22.288Z,55.40
2019-05-02T02:21:14.202Z,55.40
2019-05-02T02:23:55.536Z,55.50
2019-05-02T02:26:24.996Z,55.50
2019-05-02T02:28:53.938Z,55.40
2019-05-02T02:31:23.112Z,55.50
2019-05-02T02:33:52.091Z,55.30
2019-05-02T02:36:31.539Z,55.50
2019-05-02T02:38:51.660Z,55.40
2019-05-02T02:41:20.636Z,55.50
2019-05-02T02:44:07.536Z,55.60
2019-05-02T02:46:38.607Z,55.60
2019-05-02T02:49:14.235Z,55.80
2019-05-02T02:51:38.625Z,55.70
2019-05-02T02:54:07.575Z,55.70
2019-05-02T02:56:40.442Z,55.80
2019-05-02T02:59:07.188Z,55.80
2019-05-02T03:01:36.220Z,55.90
2019-05-02T03:04:09.284Z,56.00
2019-05-02T03:06:38.309Z,56.10
2019-05-02T03:09:06.992Z,56.00
2019-05-02T03:12:01.951Z,55.90
2019-05-02T03:14:33.243Z,55.90
2019-05-02T03:17:02.244Z,55.80
2019-05-02T03:19:31.260Z,55.80
2019-05-02T03:22:01.379Z,55.80
2019-05-02T03:24:36.629Z,56.00
2019-05-02T03:27:01.470Z,55.90
2019-05-02T03:29:41.377Z,55.90
2019-05-02T03:32:14.221Z,55.90
2019-05-02T03:34:46.582Z,56.00
2019-05-02T03:37:10.739Z,56.00
2019-05-02T03:39:33.715Z,56.10
2019-05-02T03:42:04.866Z,56.00
2019-05-02T03:44:33.765Z,56.10
2019-05-02T03:47:04.843Z,56.00
2019-05-02T03:49:33.420Z,56.00
2019-05-02T03:52:05.706Z,56.20
2019-05-02T03:54:33.645Z,56.20
2019-05-02T03:57:02.607Z,56.30
2019-05-02T03:59:39.077Z,56.30
2019-05-02T04:02:02.278Z,56.50
2019-05-02T04:04:31.249Z,56.70
2019-05-02T04:07:01.286Z,56.70
2019-05-02T04:09:41.985Z,56.80
2019-05-02T04:12:11.540Z,56.80
2019-05-02T04:14:39.273Z,57.10
2019-05-02T04:17:10.203Z,57.20
2019-05-02T04:19:39.702Z,57.30
2019-05-02T04:22:12.168Z,57.30
2019-05-02T04:24:59.651Z,57.50
2019-05-02T04:27:34.027Z,57.60
2019-05-02T04:30:09.738Z,57.80
2019-05-02T04:32:30.879Z,57.80
2019-05-02T04:34:59.934Z,57.80
2019-05-02T04:37:34.473Z,57.90
2019-05-02T04:40:03.162Z,58.20
2019-05-02T04:42:30.419Z,58.20
2019-05-02T04:58:08.311Z,58.40
2019-05-02T05:00:39.203Z,58.40
2019-05-02T05:03:15.748Z,58.50
2019-05-02T05:05:40.376Z,58.60
2019-05-02T05:08:09.532Z,58.60
2019-05-02T05:10:41.372Z,58.70
2019-05-02T05:13:12.122Z,58.90
2019-05-02T05:15:48.474Z,59.00
2019-05-02T05:18:14.386Z,59.00
2019-05-02T05:20:45.917Z,59.20
2019-05-02T05:23:15.743Z,59.30
2019-05-02T05:25:55.773Z,59.20
2019-05-02T05:28:24.687Z,59.50
2019-05-02T05:30:53.802Z,59.50
2019-05-02T05:33:22.908Z,59.50
2019-05-02T05:35:52.715Z,60.10
2019-05-02T05:38:23.069Z,59.60
2019-05-02T05:40:52.603Z,59.70
2019-05-02T05:43:21.585Z,59.80
2019-05-02T05:45:56.044Z,60.00
2019-05-02T05:48:21.325Z,60.00
2019-05-02T05:50:50.164Z,59.90
2019-05-02T05:53:21.369Z,59.80
2019-05-02T05:55:53.549Z,59.80
2019-05-02T05:58:20.185Z,59.90
2019-05-02T06:00:53.671Z,59.80
2019-05-02T06:03:19.918Z,59.70
2019-05-02T06:05:48.934Z,59.40
2019-05-02T06:08:18.578Z,59.00
2019-05-02T06:10:48.735Z,58.90
2019-05-02T06:13:17.646Z,58.70
2019-05-02T06:15:46.571Z,59.00
2019-05-02T06:18:15.555Z,59.10
2019-05-02T06:20:44.493Z,58.80
2019-05-02T06:23:13.422Z,58.70
2019-05-02T06:25:42.927Z,58.10
2019-05-02T06:28:12.335Z,57.80
2019-05-02T06:30:41.250Z,57.60
2019-05-02T06:33:10.174Z,57.60
2019-05-02T06:35:39.078Z,57.80
2019-05-02T06:38:08.030Z,57.90
2019-05-02T06:40:39.328Z,57.80
2019-05-02T06:43:09.689Z,57.70
2019-05-02T06:45:39.684Z,57.50
2019-05-02T06:48:17.135Z,57.40
2019-05-02T06:50:40.594Z,57.80
2019-05-02T06:53:11.197Z,57.20
2019-05-02T06:55:40.309Z,56.90
2019-05-02T06:58:09.152Z,56.80
2019-05-02T07:00:56.095Z,56.70
2019-05-02T07:03:10.316Z,56.50
2019-05-02T07:05:39.363Z,56.50
2019-05-02T07:08:11.664Z,56.50
2019-05-02T07:10:44.904Z,56.60
2019-05-02T07:13:11.031Z,56.50
2019-05-02T07:16:02.399Z,57.00
2019-05-02T07:18:34.757Z,56.40
2019-05-02T07:21:05.154Z,56.40
2019-05-02T07:23:34.232Z,56.40
2019-05-02T07:26:03.077Z,56.50
2019-05-02T07:28:31.949Z,56.70
2019-05-02T07:31:01.243Z,56.70
2019-05-02T07:33:32.366Z,56.60
2019-05-02T07:36:01.466Z,56.80
2019-05-02T07:38:30.635Z,56.70
2019-05-02T07:41:00.041Z,56.70
2019-05-02T07:43:28.854Z,56.70
2019-05-02T07:45:57.708Z,56.80
2019-05-02T07:48:26.534Z,56.70
2019-05-02T07:50:56.079Z,56.70
2019-05-02T07:53:25.378Z,56.80
2019-05-02T07:55:54.369Z,56.80
2019-05-02T07:58:23.290Z,56.90
2019-05-02T08:00:52.297Z,57.00
2019-05-02T08:03:21.197Z,57.10
2019-05-02T08:05:54.470Z,57.10
2019-05-02T08:08:25.081Z,57.00
2019-05-02T08:10:53.808Z,57.20
2019-05-02T08:13:22.159Z,57.40
2019-05-02T08:15:52.380Z,57.50
2019-05-02T08:18:25.051Z,57.70
2019-05-02T08:20:56.069Z,57.70
2019-05-02T08:23:25.850Z,57.70
2019-05-02T08:25:53.750Z,57.80
2019-05-02T08:28:31.026Z,57.80
2019-05-02T08:30:59.875Z,57.80
2019-05-02T08:33:29.402Z,58.30
2019-05-02T08:35:59.394Z,57.90
2019-05-02T08:38:28.241Z,58.00
2019-05-02T08:40:57.149Z,58.00
2019-05-02T08:43:25.970Z,57.90
2019-05-02T08:45:54.900Z,57.60
2019-05-02T08:48:23.926Z,57.70
2019-05-02T08:50:52.905Z,57.70
2019-05-02T08:53:22.286Z,57.50
2019-05-02T08:55:51.682Z,57.70
2019-05-02T08:58:20.545Z,57.50
2019-05-02T09:00:49.470Z,57.70
2019-05-02T09:03:18.478Z,57.80
2019-05-02T09:05:47.682Z,57.80
2019-05-02T09:08:16.868Z,57.50
2019-05-02T09:10:46.024Z,57.60
2019-05-02T09:13:17.975Z,57.70
2019-05-02T09:15:51.058Z,57.60
2019-05-02T09:18:16.128Z,57.70
2019-05-02T09:20:46.921Z,57.60
2019-05-02T09:23:15.570Z,57.80
2019-05-02T09:25:44.638Z,57.80
2019-05-02T09:28:17.132Z,57.90
2019-05-02T09:30:46.725Z,57.90
2019-05-02T09:33:14.869Z,58.00
2019-05-02T09:35:43.788Z,57.90
2019-05-02T09:38:14.693Z,57.90
2019-05-02T09:40:47.248Z,57.80
2019-05-02T09:43:13.860Z,57.90
2019-05-02T09:45:43.950Z,57.80
2019-05-02T09:48:17.172Z,57.90
2019-05-02T09:50:43.978Z,58.00
2019-05-02T09:53:20.353Z,57.80
2019-05-02T09:55:50.208Z,57.80
2019-05-02T09:58:19.629Z,57.70
2019-05-02T10:01:01.830Z,57.70
2019-05-02T10:03:31.894Z,57.70
2019-05-02T10:06:03.028Z,57.70
2019-05-02T10:08:32.184Z,57.70
2019-05-02T10:11:02.832Z,57.70
2019-05-02T10:13:33.121Z,57.80
2019-05-02T10:16:02.241Z,57.70
2019-05-02T10:18:32.941Z,57.60
2019-05-02T10:21:03.000Z,57.40
2019-05-02T10:23:32.490Z,57.20
2019-05-02T10:26:02.821Z,57.30
2019-05-02T10:28:32.093Z,57.10
2019-05-02T10:31:02.331Z,57.10
2019-05-02T10:33:33.705Z,57.10
2019-05-02T10:36:02.693Z,57.10
2019-05-02T10:38:32.659Z,57.10
2019-05-02T10:41:04.785Z,57.20
2019-05-02T10:43:32.989Z,57.30
2019-05-02T10:46:07.958Z,57.40
2019-05-02T10:48:41.922Z,57.40
2019-05-02T10:51:28.489Z,57.30
2019-05-02T10:53:57.346Z,57.30
2019-05-02T10:56:26.249Z,57.20
2019-05-02T10:58:55.150Z,57.10
2019-05-02T11:01:25.790Z,57.00
2019-05-02T11:03:56.769Z,56.70
2019-05-02T11:06:25.693Z,56.90
2019-05-02T11:08:54.698Z,56.90
2019-05-02T11:11:23.806Z,56.90
2019-05-02T11:14:11.978Z,57.00
2019-05-02T11:16:58.943Z,57.20
2019-05-02T11:19:45.613Z,57.20
2019-05-02T11:22:14.565Z,57.30
2019-05-02T11:24:43.513Z,57.30
2019-05-02T11:27:12.871Z,57.40
2019-05-02T11:29:42.624Z,57.40
2019-05-02T11:32:12.773Z,57.50
2019-05-02T11:34:42.106Z,57.60
2019-05-02T11:37:12.154Z,57.50
2019-05-02T11:39:46.886Z,57.40
2019-05-02T11:42:12.557Z,57.40
2019-05-02T11:44:41.864Z,57.50
2019-05-02T11:47:12.599Z,57.50
2019-05-02T11:49:42.524Z,57.40
2019-05-02T11:52:12.440Z,57.30
2019-05-02T11:54:44.687Z,57.40
2019-05-02T11:57:11.932Z,57.40
2019-05-02T11:59:42.492Z,57.30
2019-05-02T12:02:42.782Z,57.30
2019-05-02T12:05:13.926Z,57.30
2019-05-02T12:07:42.919Z,57.10
2019-05-02T12:10:12.571Z,57.10
2019-05-02T12:12:42.975Z,57.10
2019-05-02T12:15:12.496Z,57.10
2019-05-02T12:17:41.988Z,57.10
2019-05-02T12:20:11.906Z,57.30
2019-05-02T12:22:41.934Z,57.10
2019-05-02T12:25:12.697Z,57.20
2019-05-02T12:27:42.489Z,56.90
2019-05-02T12:30:12.402Z,56.90
2019-05-02T12:32:42.667Z,56.70
2019-05-02T12:35:11.951Z,56.70
2019-05-02T12:37:42.389Z,56.80
2019-05-02T12:40:12.231Z,56.50
2019-05-02T12:42:41.944Z,56.40
2019-05-02T12:45:12.306Z,56.50
2019-05-02T12:47:42.766Z,56.40
2019-05-02T12:50:12.179Z,56.40
2019-05-02T12:52:42.887Z,56.40
2019-05-02T12:55:12.772Z,56.30
2019-05-02T12:57:42.912Z,56.20
2019-05-02T13:00:13.377Z,56.00
2019-05-02T13:02:52.419Z,55.90
2019-05-02T13:05:22.187Z,55.80
2019-05-02T13:07:55.315Z,55.80
2019-05-02T13:10:36.548Z,55.90
2019-05-02T13:13:07.953Z,55.90
2019-05-02T13:15:38.021Z,55.90
2019-05-02T13:18:07.654Z,55.70
2019-05-02T13:20:38.396Z,55.70
2019-05-02T13:23:37.307Z,55.60
2019-05-02T13:26:18.447Z,55.60
2019-05-02T13:28:38.101Z,55.50
2019-05-02T13:31:22.295Z,55.50
2019-05-02T13:33:58.314Z,55.30
2019-05-02T13:36:39.761Z,55.20
2019-05-02T13:39:13.709Z,55.10
2019-05-02T13:41:43.066Z,55.20
2019-05-02T13:44:14.728Z,55.10
2019-05-02T13:46:43.790Z,54.80
2019-05-02T13:49:12.842Z,54.90
2019-05-02T13:51:42.610Z,54.80
2019-05-02T13:54:12.538Z,54.60
2019-05-02T13:56:48.891Z,54.80
2019-05-02T13:59:19.173Z,54.70
2019-05-02T14:01:51.906Z,54.70
2019-05-02T14:04:22.972Z,54.40
2019-05-02T14:06:52.889Z,54.20
2019-05-02T14:09:44.060Z,54.00
2019-05-02T14:12:18.663Z,54.10
2019-05-02T14:14:47.533Z,54.10
2019-05-02T14:17:16.439Z,54.10
2019-05-02T14:19:45.394Z,54.00
2019-05-02T14:22:14.391Z,54.10
2019-05-02T14:24:43.302Z,54.00
2019-05-02T14:27:17.211Z,54.00
2019-05-02T14:29:43.076Z,53.90
2019-05-02T14:32:21.347Z,53.90
2019-05-02T14:35:07.571Z,53.90
2019-05-02T14:37:36.613Z,53.70
2019-05-02T14:40:26.075Z,53.70
2019-05-02T14:42:57.757Z,53.40
2019-05-02T14:45:30.365Z,53.30
2019-05-02T14:47:58.872Z,53.20
2019-05-02T14:50:27.089Z,53.10
2019-05-02T14:52:58.074Z,53.00
2019-05-02T14:55:29.262Z,52.90
2019-05-02T14:58:02.143Z,52.80
2019-05-02T15:00:33.394Z,52.80
2019-05-02T15:03:03.323Z,52.90
2019-05-02T15:05:32.642Z,52.60
2019-05-02T15:08:06.696Z,52.60
2019-05-02T15:10:35.997Z,52.50
2019-05-02T15:13:03.912Z,52.50
2019-05-02T15:15:40.510Z,52.40
2019-05-02T15:18:07.857Z,52.30
2019-05-02T15:20:38.934Z,52.30
2019-05-02T15:23:07.211Z,52.30
2019-05-02T15:25:35.953Z,52.30
2019-05-02T15:28:04.949Z,52.20
2019-05-02T15:30:36.988Z,52.20
2019-05-02T15:33:09.758Z,52.10
2019-05-02T15:35:52.714Z,52.00
2019-05-02T15:38:27.636Z,52.00
2019-05-02T15:40:53.818Z,52.00
2019-05-02T15:43:23.006Z,52.40
2019-05-02T15:45:52.676Z,52.00
2019-05-02T15:48:27.269Z,51.90
2019-05-02T15:50:55.358Z,51.70
2019-05-02T15:53:28.236Z,51.70
2019-05-02T15:55:57.167Z,51.70
2019-05-02T15:58:27.790Z,52.10
2019-05-02T16:01:18.582Z,51.40
2019-05-02T16:03:49.620Z,51.40
2019-05-02T16:06:21.807Z,51.40
2019-05-02T16:08:49.263Z,51.20
2019-05-02T16:11:18.682Z,51.30
2019-05-02T16:13:52.445Z,51.30
2019-05-02T16:16:19.479Z,51.20
2019-05-02T16:18:48.403Z,51.00
2019-05-02T16:21:28.401Z,50.90
2019-05-02T16:24:14.712Z,50.90
2019-05-02T16:26:44.818Z,50.90
2019-05-02T16:29:14.912Z,50.70
2019-05-02T16:31:45.394Z,50.80
2019-05-02T16:34:15.051Z,50.90
2019-05-02T16:36:44.213Z,50.70
2019-05-02T16:39:15.211Z,50.70
2019-05-02T16:41:49.074Z,50.60
2019-05-02T16:44:14.606Z,50.50
2019-05-02T16:46:43.867Z,50.40
2019-05-02T16:49:15.705Z,50.70
2019-05-02T16:51:43.552Z,50.30
2019-05-02T16:54:12.811Z,50.40
2019-05-02T16:56:45.698Z,50.10
2019-05-02T16:59:12.705Z,50.10
2019-05-02T17:01:42.531Z,50.20
2019-05-02T17:04:12.908Z,50.20
2019-05-02T17:06:42.608Z,50.10
2019-05-02T17:09:22.306Z,50.10
2019-05-02T17:11:52.418Z,50.00
2019-05-02T17:14:22.066Z,50.00
2019-05-02T17:16:52.346Z,50.10
2019-05-02T17:19:26.173Z,50.00
2019-05-02T17:21:56.302Z,50.00
2019-05-02T17:24:26.113Z,50.00
2019-05-02T17:26:56.621Z,50.10
2019-05-02T17:29:26.052Z,49.90
2019-05-02T17:31:59.134Z,50.00
2019-05-02T17:34:30.700Z,50.00
2019-05-02T17:36:59.111Z,50.20
2019-05-02T17:39:27.244Z,50.30
2019-05-02T17:41:56.510Z,50.40
2019-05-02T17:44:25.831Z,50.40
2019-05-02T17:46:58.121Z,50.40
2019-05-02T17:49:34.829Z,50.40
2019-05-02T17:52:19.699Z,50.30
2019-05-02T17:54:45.541Z,50.40
2019-05-02T17:57:14.537Z,50.50
2019-05-02T17:59:43.437Z,50.60
2019-05-02T18:02:15.886Z,50.60
2019-05-02T18:04:46.586Z,50.80
2019-05-02T18:07:14.173Z,50.90
2019-05-02T18:09:43.134Z,51.50
2019-05-02T18:12:16.106Z,50.80
2019-05-02T18:14:42.847Z,50.80
2019-05-02T18:17:12.752Z,50.80
2019-05-02T18:19:42.601Z,50.90
2019-05-02T18:22:23.420Z,51.10
2019-05-02T18:24:46.356Z,51.00
2019-05-02T18:27:14.958Z,51.10
2019-05-02T18:29:45.630Z,51.20
2019-05-02T18:32:17.449Z,51.10
2019-05-02T18:34:45.779Z,51.40
2019-05-02T18:37:14.924Z,51.40
2019-05-02T18:39:49.718Z,51.50
2019-05-02T18:42:16.600Z,51.60
2019-05-02T18:44:48.228Z,51.60
2019-05-02T18:47:20.082Z,51.70
2019-05-02T18:49:53.724Z,51.80
2019-05-02T18:52:20.229Z,51.90
2019-05-02T18:54:49.146Z,52.00
2019-05-02T18:57:24.404Z,52.00
2019-05-02T18:59:51.930Z,52.10
2019-05-02T19:02:21.583Z,52.20
2019-05-02T19:04:51.623Z,52.20
2019-05-02T19:07:32.508Z,52.20
2019-05-02T19:09:58.899Z,52.40
2019-05-02T19:12:27.341Z,52.40
2019-05-02T19:14:57.524Z,52.50
2019-05-02T19:17:27.163Z,52.40
2019-05-02T19:19:56.142Z,52.30
2019-05-02T19:22:25.087Z,52.40
2019-05-02T19:24:54.133Z,52.40
2019-05-02T19:27:42.829Z,52.40
2019-05-02T19:30:12.986Z,52.50
2019-05-02T19:32:41.979Z,52.30
2019-05-02T19:35:10.953Z,52.30
2019-05-02T19:37:44.570Z,52.40
2019-05-02T19:40:14.953Z,52.40
2019-05-02T19:42:44.998Z,52.50
2019-05-02T19:45:16.797Z,52.40
2019-05-02T19:47:49.050Z,52.40
2019-05-02T19:50:41.607Z,52.40
2019-05-02T19:53:14.974Z,52.40
2019-05-02T19:55:39.910Z,52.30
2019-05-02T19:58:09.275Z,52.50
2019-05-02T20:00:44.451Z,52.70
2019-05-02T20:03:13.589Z,52.70
2019-05-02T20:05:39.584Z,52.70
2019-05-02T20:08:09.744Z,52.60
2019-05-02T20:10:39.164Z,52.90
2019-05-02T20:13:08.215Z,52.40
2019-05-02T20:15:42.125Z,52.40
2019-05-02T20:18:11.902Z,52.60
2019-05-02T20:20:48.774Z,52.40
2019-05-02T20:23:18.727Z,52.60
2019-05-02T20:25:48.874Z,52.70
2019-05-02T20:28:17.871Z,52.70
2019-05-02T20:30:46.807Z,52.50
2019-05-02T20:33:15.818Z,52.40
2019-05-02T20:35:44.743Z,52.40
2019-05-02T20:38:13.671Z,52.40
2019-05-02T20:40:42.762Z,52.40
2019-05-02T20:43:12.189Z,52.30
2019-05-02T20:45:41.679Z,52.50
2019-05-02T20:48:11.929Z,52.30
2019-05-02T20:50:42.414Z,52.30
2019-05-02T20:53:12.827Z,52.50
2019-05-02T20:55:42.164Z,52.40
2019-05-02T20:58:12.645Z,52.50
2019-05-02T21:00:42.676Z,52.40
2019-05-02T21:03:12.041Z,52.30
2019-05-02T21:05:47.951Z,52.50
2019-05-02T21:08:38.810Z,52.60
2019-05-02T21:11:07.871Z,52.60
2019-05-02T21:13:36.812Z,52.60
2019-05-02T21:16:05.858Z,52.50
2019-05-02T21:18:34.884Z,52.40
2019-05-02T21:21:04.228Z,52.20
2019-05-02T21:23:44.185Z,52.40
2019-05-02T21:26:04.343Z,52.40
2019-05-02T21:28:33.307Z,52.60
2019-05-02T21:31:02.915Z,52.60
2019-05-02T21:33:39.739Z,52.50
2019-05-02T21:36:08.928Z,52.70
2019-05-02T21:38:37.858Z,52.60
2019-05-02T21:41:10.610Z,52.50
2019-05-02T21:43:39.544Z,52.80
2019-05-02T21:46:08.568Z,52.70
2019-05-02T21:48:37.500Z,52.50
2019-05-02T21:51:12.232Z,52.50
2019-05-02T21:53:56.077Z,52.70
2019-05-02T21:56:47.775Z,52.50
2019-05-02T21:59:16.651Z,52.60
2019-05-02T22:01:51.733Z,52.40
2019-05-02T22:04:22.224Z,52.10
2019-05-02T22:06:52.161Z,52.00
2019-05-02T22:09:23.150Z,52.10
2019-05-02T22:11:52.467Z,52.00
2019-05-02T22:14:22.254Z,52.20
2019-05-02T22:16:52.898Z,52.00
2019-05-02T22:19:22.424Z,52.00
2019-05-02T22:21:52.480Z,52.00
2019-05-02T22:24:22.156Z,52.00
2019-05-02T22:26:52.566Z,52.00
2019-05-02T22:29:22.012Z,52.00
2019-05-02T22:31:54.199Z,52.00
2019-05-02T22:34:22.095Z,52.00
2019-05-02T22:36:53.877Z,52.00
2019-05-02T22:39:53.179Z,52.00
2019-05-02T22:42:22.816Z,52.00
2019-05-02T22:44:51.816Z,52.00
2019-05-02T22:47:22.671Z,51.80
2019-05-02T22:49:51.891Z,51.80
2019-05-02T22:52:21.769Z,51.90
2019-05-02T22:54:52.349Z,51.90
2019-05-02T22:57:22.604Z,51.80
2019-05-02T22:59:51.832Z,51.80
2019-05-02T23:02:21.966Z,51.90
2019-05-02T23:04:52.661Z,51.90
2019-05-02T23:07:22.306Z,52.20
2019-05-02T23:09:52.690Z,52.20
2019-05-02T23:12:24.802Z,51.90
2019-05-02T23:14:52.939Z,51.80
2019-05-02T23:17:23.144Z,51.80
2019-05-02T23:19:52.774Z,51.80
2019-05-02T23:22:21.984Z,52.00
2019-05-02T23:25:15.431Z,51.80
2019-05-02T23:28:02.496Z,52.00
2019-05-02T23:30:31.868Z,51.80
2019-05-02T23:33:02.325Z,51.80
2019-05-02T23:35:32.012Z,51.90
2019-05-02T23:38:02.243Z,52.10
2019-05-02T23:40:31.227Z,52.10
2019-05-02T23:43:01.870Z,52.00
2019-05-02T23:45:31.677Z,52.00
2019-05-02T23:48:02.161Z,52.80
2019-05-02T23:50:31.349Z,52.00
2019-05-02T23:53:02.174Z,52.20
2019-05-02T23:55:32.193Z,52.30
2019-05-02T23:58:02.937Z,52.30
